createdAt,value
2022-09-10T00:01:43.634Z,17.50
2022-09-10T00:04:14.767Z,17.50
2022-09-10T00:06:43.827Z,17.40
2022-09-10T00:09:14.679Z,17.30
2022-09-10T00:11:45.311Z,17.10
2022-09-10T00:14:16.017Z,17.10
2022-09-10T00:16:44.918Z,17.20
2022-09-10T00:19:14.719Z,17.20
2022-09-10T00:21:44.369Z,17.10
2022-09-10T00:24:14.358Z,17.10
2022-09-10T00:26:45.727Z,17.00
2022-09-10T00:29:15.891Z,17.10
2022-09-10T00:31:45.062Z,17.10
2022-09-10T00:34:14.759Z,17.10
2022-09-10T00:36:44.492Z,17.10
2022-09-10T00:39:15.783Z,17.10
2022-09-10T00:41:45.874Z,17.00
2022-09-10T00:44:51.816Z,17.00
2022-09-10T00:47:23.464Z,17.00
2022-09-10T00:49:54.426Z,17.00
2022-09-10T00:52:22.946Z,17.00
2022-09-10T00:54:53.301Z,17.00
2022-09-10T00:57:23.639Z,16.90
2022-09-10T00:59:55.111Z,16.90
2022-09-10T01:02:23.724Z,16.80
2022-09-10T01:04:52.714Z,16.70
2022-09-10T01:07:22.957Z,16.60
2022-09-10T01:09:53.009Z,16.70
2022-09-10T01:12:36.099Z,16.70
2022-09-10T01:15:15.815Z,16.70
2022-09-10T01:17:55.249Z,16.70
2022-09-10T01:20:51.224Z,16.60
2022-09-10T01:24:01.216Z,16.60
2022-09-10T01:26:45.529Z,16.60
2022-09-10T01:29:20.007Z,16.40
2022-09-10T01:31:51.825Z,16.30
2022-09-10T01:34:25.947Z,16.30
2022-09-10T01:36:57.246Z,16.30
2022-09-10T01:39:26.132Z,16.30
2022-09-10T01:41:55.104Z,16.30
2022-09-10T01:44:46.082Z,16.40
2022-09-10T01:47:21.238Z,16.50
2022-09-10T01:50:13.286Z,16.60
2022-09-10T01:52:48.436Z,16.70
2022-09-10T01:55:27.299Z,16.70
2022-09-10T01:58:00.923Z,16.60
2022-09-10T02:00:33.355Z,16.50
2022-09-10T02:03:06.579Z,16.50
2022-09-10T02:05:37.505Z,16.50
2022-09-10T02:08:11.262Z,16.40
2022-09-10T02:10:53.937Z,16.30
2022-09-10T02:13:23.301Z,16.30
2022-09-10T02:15:53.371Z,16.40
2022-09-10T02:18:22.572Z,16.40
2022-09-10T02:20:52.978Z,16.50
2022-09-10T02:23:26.063Z,16.50
2022-09-10T02:25:54.631Z,16.50
2022-09-10T02:28:23.060Z,16.40
2022-09-10T02:30:52.960Z,16.50
2022-09-10T02:33:21.424Z,16.50
2022-09-10T02:35:49.946Z,16.50
2022-09-10T02:38:18.457Z,16.40
2022-09-10T02:40:49.046Z,16.50
2022-09-10T02:43:18.359Z,16.60
2022-09-10T02:45:46.920Z,16.60
2022-09-10T02:48:18.305Z,16.60
2022-09-10T02:50:47.098Z,16.70
2022-09-10T02:53:15.511Z,16.70
2022-09-10T02:55:46.208Z,16.70
2022-09-10T02:58:15.034Z,16.80
2022-09-10T03:00:43.901Z,16.80
2022-09-10T03:03:12.894Z,16.90
2022-09-10T03:05:43.389Z,16.80
2022-09-10T03:08:12.192Z,16.70
2022-09-10T03:10:40.660Z,16.60
2022-09-10T03:13:09.070Z,16.60
2022-09-10T03:15:38.254Z,16.50
2022-09-10T03:18:06.970Z,16.30
2022-09-10T03:20:36.571Z,16.20
2022-09-10T03:23:06.963Z,16.20
2022-09-10T03:25:35.535Z,16.20
2022-09-10T03:28:04.195Z,16.30
2022-09-10T03:30:33.116Z,16.30
2022-09-10T03:33:01.824Z,16.20
2022-09-10T03:35:30.287Z,16.30
2022-09-10T03:37:58.724Z,16.30
2022-09-10T03:40:29.675Z,16.20
2022-09-10T03:42:58.174Z,16.20
2022-09-10T03:45:27.033Z,16.20
2022-09-10T03:47:55.617Z,16.20
2022-09-10T03:50:24.184Z,16.20
2022-09-10T03:52:52.627Z,16.20
2022-09-10T03:55:22.195Z,16.10
2022-09-10T03:57:52.162Z,16.10
2022-09-10T04:00:21.082Z,16.10
2022-09-10T04:02:49.528Z,16.10
2022-09-10T04:05:19.117Z,16.00
2022-09-10T04:07:47.562Z,16.00
2022-09-10T04:10:16.051Z,15.90
2022-09-10T04:12:45.799Z,15.80
2022-09-10T04:15:15.852Z,15.90
2022-09-10T04:17:44.407Z,15.80
2022-09-10T04:20:13.004Z,15.80
2022-09-10T04:22:41.394Z,15.90
2022-09-10T04:25:10.751Z,16.10
2022-09-10T04:27:39.379Z,16.30
2022-09-10T04:30:09.208Z,16.60
2022-09-10T04:32:39.322Z,16.80
2022-09-10T04:35:08.741Z,17.00
2022-09-10T04:37:37.198Z,17.20
2022-09-10T04:40:06.425Z,17.30
2022-09-10T04:42:34.939Z,17.40
2022-09-10T04:45:03.503Z,17.50
2022-09-10T04:47:32.162Z,17.60
2022-09-10T04:50:02.047Z,17.70
2022-09-10T04:52:30.510Z,17.80
2022-09-10T04:54:59.809Z,17.90
2022-09-10T04:57:28.969Z,17.90
2022-09-10T04:59:57.366Z,18.00
2022-09-10T05:02:26.267Z,18.00
2022-09-10T05:04:54.857Z,18.10
2022-09-10T05:07:24.988Z,18.10
2022-09-10T05:09:53.832Z,18.20
2022-09-10T05:12:24.279Z,18.30
2022-09-10T05:14:56.253Z,18.30
2022-09-10T05:17:25.033Z,18.40
2022-09-10T05:19:53.969Z,18.60
2022-09-10T05:22:28.518Z,18.70
2022-09-10T05:25:03.069Z,18.80
2022-09-10T05:27:31.988Z,18.90
2022-09-10T05:30:02.121Z,19.00
2022-09-10T05:32:33.038Z,19.20
2022-09-10T05:35:05.201Z,19.30
2022-09-10T05:37:35.088Z,19.50
2022-09-10T05:40:04.597Z,19.80
2022-09-10T05:42:33.234Z,20.00
2022-09-10T05:45:05.088Z,20.30
2022-09-10T05:47:34.774Z,20.40
2022-09-10T05:50:03.595Z,20.50
2022-09-10T05:52:32.934Z,20.60
2022-09-10T05:55:03.105Z,20.80
2022-09-10T05:57:32.027Z,20.70
2022-09-10T06:00:01.271Z,20.60
2022-09-10T06:02:29.917Z,20.50
2022-09-10T06:05:01.021Z,20.40
2022-09-10T06:07:32.170Z,20.20
2022-09-10T06:10:02.411Z,20.10
2022-09-10T06:12:30.850Z,20.20
2022-09-10T06:14:59.337Z,20.30
2022-09-10T06:17:27.759Z,20.40
2022-09-10T06:19:56.240Z,20.50
2022-09-10T06:22:24.802Z,20.50
2022-09-10T06:24:53.778Z,20.60
2022-09-10T06:27:24.242Z,20.70
2022-09-10T06:29:52.692Z,20.90
2022-09-10T06:32:21.535Z,21.10
2022-09-10T06:34:49.991Z,21.20
2022-09-10T06:37:18.659Z,21.40
2022-09-10T06:39:47.263Z,21.60
2022-09-10T06:42:15.658Z,21.80
2022-09-10T06:44:45.494Z,21.90
2022-09-10T06:50:02.372Z,22.20
2022-09-10T06:52:30.826Z,22.30
2022-09-10T06:54:59.295Z,22.40
2022-09-10T06:57:27.901Z,22.50
2022-09-10T06:59:58.784Z,22.40
2022-09-10T07:02:27.281Z,22.30
2022-09-10T07:04:55.746Z,22.10
2022-09-10T07:07:24.291Z,22.10
2022-09-10T07:09:55.107Z,22.10
2022-09-10T07:12:23.624Z,22.20
2022-09-10T07:14:52.796Z,22.40
2022-09-10T07:17:22.546Z,22.50
2022-09-10T07:19:50.995Z,22.50
2022-09-10T07:22:19.399Z,22.30
2022-09-10T07:24:50.306Z,22.10
2022-09-10T07:27:18.714Z,21.80
2022-09-10T07:29:47.460Z,21.60
2022-09-10T07:32:15.839Z,21.30
2022-09-10T07:34:46.653Z,21.10
2022-09-10T07:37:15.822Z,20.80
2022-09-10T07:39:44.371Z,20.60
2022-09-10T07:42:12.899Z,20.60
2022-09-10T07:44:41.318Z,20.50
2022-09-10T07:47:09.739Z,20.40
2022-09-10T07:49:38.961Z,20.30
2022-09-10T07:52:08.883Z,20.30
2022-09-10T07:54:37.285Z,20.40
2022-09-10T07:57:06.310Z,20.50
2022-09-10T07:59:34.792Z,20.60
2022-09-10T08:02:03.254Z,20.70
2022-09-10T08:04:36.477Z,20.80
2022-09-10T08:07:05.588Z,20.90
2022-09-10T08:09:35.351Z,21.00
2022-09-10T08:12:04.305Z,21.10
2022-09-10T08:14:32.751Z,21.20
2022-09-10T08:17:01.847Z,21.30
2022-09-10T08:19:30.322Z,21.40
2022-09-10T08:21:58.771Z,21.40
2022-09-10T08:24:28.207Z,21.40
2022-09-10T08:26:58.012Z,21.40
2022-09-10T08:29:26.455Z,21.60
2022-09-10T08:31:56.215Z,21.60
2022-09-10T08:34:26.273Z,21.70
2022-09-10T08:36:55.524Z,21.60
2022-09-10T08:39:24.193Z,21.70
2022-09-10T08:41:55.255Z,21.70
2022-09-10T08:44:33.111Z,21.70
2022-09-10T08:47:07.598Z,21.80
2022-09-10T08:49:39.413Z,21.80
2022-09-10T08:52:14.099Z,21.80
2022-09-10T08:54:46.595Z,21.80
2022-09-10T08:57:23.861Z,21.90
2022-09-10T08:59:54.007Z,21.90
2022-09-10T09:02:47.111Z,22.00
2022-09-10T09:05:17.177Z,22.00
2022-09-10T09:07:47.053Z,22.00
2022-09-10T09:10:30.232Z,21.90
2022-09-10T09:13:31.474Z,21.90
2022-09-10T09:16:10.872Z,21.80
2022-09-10T09:18:52.416Z,21.80
2022-09-10T09:21:28.786Z,21.70
2022-09-10T09:24:14.249Z,21.80
2022-09-10T09:26:43.526Z,21.80
2022-09-10T09:29:16.291Z,21.90
2022-09-10T09:31:48.842Z,21.90
2022-09-10T09:34:20.317Z,21.90
2022-09-10T09:36:51.675Z,22.00
2022-09-10T09:39:25.431Z,22.10
2022-09-10T09:42:00.619Z,22.10
2022-09-10T09:44:31.318Z,22.00
2022-09-10T09:47:01.116Z,21.90
2022-09-10T09:49:29.667Z,21.90
2022-09-10T09:51:58.786Z,21.90
2022-09-10T09:55:13.104Z,22.00
2022-09-10T09:57:20.711Z,22.00
2022-09-10T09:59:50.370Z,22.10
2022-09-10T10:02:21.786Z,22.10
2022-09-10T10:05:03.664Z,22.20
2022-09-10T10:07:33.708Z,22.20
2022-09-10T10:10:03.560Z,22.20
2022-09-10T10:12:33.168Z,22.40
2022-09-10T10:15:02.794Z,22.40
2022-09-10T10:17:38.029Z,22.30
2022-09-10T10:20:13.543Z,22.30
2022-09-10T10:22:42.792Z,22.40
2022-09-10T10:25:40.371Z,22.40
2022-09-10T10:28:25.162Z,22.30
2022-09-10T10:30:54.476Z,22.30
2022-09-10T10:33:30.721Z,22.40
2022-09-10T10:36:06.624Z,22.40
2022-09-10T10:38:36.085Z,22.40
2022-09-10T10:41:22.803Z,22.50
2022-09-10T10:43:57.827Z,22.50
2022-09-10T10:46:31.061Z,22.60
2022-09-10T10:49:06.482Z,22.60
2022-09-10T10:51:42.400Z,22.70
2022-09-10T10:54:29.290Z,22.70
2022-09-10T10:57:04.383Z,22.70
2022-09-10T10:59:45.286Z,22.70
2022-09-10T11:02:17.387Z,22.90
2022-09-10T11:04:48.780Z,22.90
2022-09-10T11:07:21.994Z,23.00
2022-09-10T11:09:53.876Z,23.00
2022-09-10T11:12:28.100Z,23.10
2022-09-10T11:15:00.451Z,23.10
2022-09-10T11:17:34.955Z,23.20
2022-09-10T11:20:27.898Z,23.20
2022-09-10T11:23:04.784Z,23.20
2022-09-10T11:25:36.295Z,23.20
2022-09-10T11:28:11.146Z,23.30
2022-09-10T11:30:41.110Z,23.30
2022-09-10T11:33:15.987Z,23.30
2022-09-10T11:35:54.166Z,23.20
2022-09-10T11:38:27.267Z,23.20
2022-09-10T11:41:04.561Z,23.00
2022-09-10T11:43:38.651Z,23.10
2022-09-10T11:46:11.175Z,23.10
2022-09-10T11:48:43.734Z,23.10
2022-09-10T11:51:18.705Z,23.00
2022-09-10T11:53:47.354Z,22.90
2022-09-10T11:56:29.852Z,22.80
2022-09-10T11:59:06.891Z,22.60
2022-09-10T12:02:02.756Z,22.50
2022-09-10T12:04:47.296Z,22.40
2022-09-10T12:07:36.360Z,22.50
2022-09-10T12:10:16.481Z,22.30
2022-09-10T12:12:49.159Z,22.30
2022-09-10T12:15:20.111Z,22.30
2022-09-10T12:17:52.254Z,22.40
2022-09-10T12:20:25.541Z,22.40
2022-09-10T12:22:57.075Z,22.40
2022-09-10T12:25:33.846Z,22.40
2022-09-10T12:28:05.488Z,22.40
2022-09-10T12:31:04.225Z,22.30
2022-09-10T12:34:14.567Z,22.20
2022-09-10T12:37:21.263Z,22.10
2022-09-10T12:40:29.882Z,22.00
2022-09-10T12:43:01.010Z,22.00
2022-09-10T12:46:03.742Z,22.10
2022-09-10T12:48:34.806Z,22.10
2022-09-10T12:51:09.901Z,22.00
2022-09-10T12:53:59.515Z,22.00
2022-09-10T12:56:54.123Z,21.90
2022-09-10T12:59:42.694Z,22.00
2022-09-10T13:02:21.728Z,21.90
2022-09-10T13:04:55.950Z,21.90
2022-09-10T13:07:27.945Z,21.80
2022-09-10T13:10:01.966Z,21.80
2022-09-10T13:12:32.785Z,21.70
2022-09-10T13:15:02.935Z,21.70
2022-09-10T13:17:39.300Z,21.70
2022-09-10T13:20:16.156Z,21.70
2022-09-10T13:23:04.266Z,21.60
2022-09-10T13:25:36.802Z,21.50
2022-09-10T13:28:45.252Z,21.40
2022-09-10T13:31:21.217Z,21.30
2022-09-10T13:34:14.685Z,21.20
2022-09-10T13:36:52.303Z,21.20
2022-09-10T13:39:35.326Z,21.20
2022-09-10T13:42:13.918Z,21.20
2022-09-10T13:45:13.512Z,21.20
2022-09-10T13:47:47.169Z,21.10
2022-09-10T13:50:19.446Z,21.00
2022-09-10T13:52:50.320Z,20.80
2022-09-10T13:55:21.206Z,20.60
2022-09-10T13:57:51.439Z,20.40
2022-09-10T14:00:24.317Z,20.20
2022-09-10T14:02:54.484Z,19.90
2022-09-10T14:05:25.983Z,19.70
2022-09-10T14:07:56.206Z,19.60
2022-09-10T14:10:24.821Z,19.50
2022-09-10T14:12:54.094Z,19.40
2022-09-10T14:15:27.804Z,19.40
2022-09-10T14:18:01.120Z,19.20
2022-09-10T14:20:34.821Z,19.10
2022-09-10T14:23:09.082Z,18.90
2022-09-10T14:25:39.735Z,18.70
2022-09-10T14:28:21.830Z,18.40
2022-09-10T14:30:52.597Z,18.20
2022-09-10T14:33:26.494Z,18.20
2022-09-10T14:35:58.137Z,18.10
2022-09-10T14:38:28.001Z,18.00
2022-09-10T14:40:58.803Z,17.90
2022-09-10T14:43:29.908Z,17.80
2022-09-10T14:46:00.807Z,17.70
2022-09-10T14:48:32.507Z,17.60
2022-09-10T14:51:11.016Z,17.50
2022-09-10T14:53:40.223Z,17.50
2022-09-10T14:56:22.328Z,17.50
2022-09-10T14:58:56.615Z,17.50
2022-09-10T15:01:26.832Z,17.60
2022-09-10T15:03:55.493Z,17.60
2022-09-10T15:06:26.342Z,17.60
2022-09-10T15:08:56.828Z,17.60
2022-09-10T15:11:26.992Z,17.60
2022-09-10T15:13:56.871Z,17.50
2022-09-10T15:16:26.711Z,17.40
2022-09-10T15:18:55.497Z,17.50
2022-09-10T15:21:23.957Z,17.50
2022-09-10T15:23:52.503Z,17.50
2022-09-10T15:26:20.937Z,17.50
2022-09-10T15:28:49.498Z,17.50
2022-09-10T15:31:19.376Z,17.60
2022-09-10T15:33:49.716Z,17.50
2022-09-10T15:36:19.390Z,17.50
2022-09-10T15:38:48.767Z,17.50
2022-09-10T15:41:22.166Z,17.50
2022-09-10T15:43:50.699Z,17.50
2022-09-10T15:46:24.324Z,17.60
2022-09-10T15:48:55.798Z,17.60
2022-09-10T15:51:25.684Z,17.40
2022-09-10T15:53:56.883Z,17.40
2022-09-10T15:56:27.253Z,17.50
2022-09-10T15:58:57.695Z,17.40
2022-09-10T16:01:31.139Z,17.40
2022-09-10T16:04:02.815Z,17.50
2022-09-10T16:06:34.352Z,17.50
2022-09-10T16:09:06.682Z,17.50
2022-09-10T16:11:37.924Z,17.60
2022-09-10T16:14:08.878Z,17.70
2022-09-10T16:16:38.077Z,17.70
2022-09-10T16:19:11.564Z,17.60
2022-09-10T16:21:40.817Z,17.50
2022-09-10T16:24:10.764Z,17.50
2022-09-10T16:26:41.141Z,17.50
2022-09-10T16:29:15.241Z,17.40
2022-09-10T16:31:45.566Z,17.40
2022-09-10T16:34:18.353Z,17.50
2022-09-10T16:36:48.850Z,17.60
2022-09-10T16:39:18.395Z,17.50
2022-09-10T16:41:48.416Z,17.50
2022-09-10T16:44:18.365Z,17.40
2022-09-10T16:46:47.637Z,17.40
2022-09-10T16:49:18.936Z,17.40
2022-09-10T16:51:49.048Z,17.40
2022-09-10T16:54:20.116Z,17.50
2022-09-10T16:56:50.480Z,17.40
2022-09-10T16:59:24.310Z,17.40
2022-09-10T17:01:55.172Z,17.30
2022-09-10T17:04:29.362Z,17.40
2022-09-10T17:06:58.977Z,17.30
2022-09-10T17:09:30.968Z,17.40
2022-09-10T17:11:59.756Z,17.30
2022-09-10T17:14:28.850Z,17.40
2022-09-10T17:16:58.797Z,17.40
2022-09-10T17:19:32.448Z,17.40
2022-09-10T17:22:03.205Z,17.40
2022-09-10T17:24:31.690Z,17.20
2022-09-10T17:27:03.028Z,17.20
2022-09-10T17:29:33.087Z,17.30
2022-09-10T17:32:01.907Z,17.30
2022-09-10T17:34:31.920Z,17.30
2022-09-10T17:37:00.380Z,17.30
2022-09-10T17:39:29.339Z,17.30
2022-09-10T17:41:58.886Z,17.20
2022-09-10T17:44:27.585Z,17.20
2022-09-10T17:46:56.231Z,17.20
2022-09-10T17:49:25.046Z,17.30
2022-09-10T17:51:55.182Z,17.50
2022-09-10T17:54:24.289Z,17.50
2022-09-10T17:56:52.703Z,17.40
2022-09-10T17:59:22.349Z,17.40
2022-09-10T18:01:52.234Z,17.40
2022-09-10T18:04:23.761Z,17.40
2022-09-10T18:06:52.793Z,17.40
2022-09-10T18:09:23.619Z,17.40
2022-09-10T18:11:52.551Z,17.30
2022-09-10T18:14:23.072Z,17.30
2022-09-10T18:16:52.443Z,17.30
2022-09-10T18:19:22.027Z,17.30
2022-09-10T18:21:51.115Z,17.20
2022-09-10T18:24:24.044Z,17.20
2022-09-10T18:26:54.907Z,17.20
2022-09-10T18:29:25.292Z,17.20
2022-09-10T18:31:55.756Z,17.20
2022-09-10T18:34:27.881Z,17.20
2022-09-10T18:37:00.505Z,17.20
2022-09-10T18:39:30.399Z,17.20
2022-09-10T18:42:01.022Z,17.20
2022-09-10T18:44:31.379Z,17.10
2022-09-10T18:46:59.807Z,17.10
2022-09-10T18:49:28.435Z,17.10
2022-09-10T18:51:57.952Z,17.00
2022-09-10T18:54:28.770Z,17.00
2022-09-10T18:56:59.178Z,16.90
2022-09-10T18:59:27.897Z,16.90
2022-09-10T19:01:56.883Z,16.90
2022-09-10T19:04:26.857Z,16.80
2022-09-10T19:06:56.143Z,16.70
2022-09-10T19:09:26.229Z,16.70
2022-09-10T19:11:56.191Z,16.60
2022-09-10T19:14:29.884Z,16.50
2022-09-10T19:17:08.231Z,16.50
2022-09-10T19:19:40.486Z,16.40
2022-09-10T19:22:10.723Z,16.40
2022-09-10T19:24:54.535Z,16.40
2022-09-10T19:27:23.982Z,16.30
2022-09-10T19:30:07.859Z,16.30
2022-09-10T19:32:38.000Z,16.30
2022-09-10T19:35:11.355Z,16.20
2022-09-10T19:37:50.200Z,16.20
2022-09-10T19:40:25.470Z,16.20
2022-09-10T19:42:54.526Z,16.10
2022-09-10T19:45:27.199Z,16.00
2022-09-10T19:47:55.879Z,16.00
2022-09-10T19:50:24.333Z,16.00
2022-09-10T19:52:54.775Z,15.90
2022-09-10T19:55:23.777Z,15.90
2022-09-10T19:57:52.227Z,15.90
2022-09-10T20:00:45.372Z,15.80
2022-09-10T20:03:11.067Z,15.70
2022-09-10T20:05:39.600Z,15.60
2022-09-10T20:08:09.698Z,15.60
2022-09-10T20:10:38.255Z,15.50
2022-09-10T20:13:08.328Z,15.50
2022-09-10T20:15:44.845Z,15.50
2022-09-10T20:18:15.316Z,15.50
2022-09-10T20:20:43.847Z,15.50
2022-09-10T20:23:12.330Z,15.40
2022-09-10T20:25:40.805Z,15.30
2022-09-10T20:28:09.382Z,15.30
2022-09-10T20:30:39.687Z,15.20
2022-09-10T20:33:08.370Z,15.20
2022-09-10T20:35:38.144Z,15.20
2022-09-10T20:38:06.579Z,15.20
2022-09-10T20:40:36.275Z,15.20
2022-09-10T20:43:04.862Z,15.20
2022-09-10T20:45:33.230Z,15.10
2022-09-10T20:48:02.041Z,15.00
2022-09-10T20:50:30.474Z,15.00
2022-09-10T20:53:00.278Z,15.00
2022-09-10T20:55:28.705Z,15.00
2022-09-10T20:57:57.127Z,15.00
2022-09-10T21:00:25.571Z,14.90
2022-09-10T21:02:53.972Z,14.90
2022-09-10T21:05:22.439Z,14.80
2022-09-10T21:07:51.250Z,14.80
2022-09-10T21:10:21.092Z,14.80
2022-09-10T21:12:49.562Z,14.80
2022-09-10T21:15:18.031Z,14.70
2022-09-10T21:17:48.398Z,14.70
2022-09-10T21:20:16.961Z,14.60
2022-09-10T21:22:45.393Z,14.60
2022-09-10T21:25:14.262Z,14.50
2022-09-10T21:27:44.127Z,14.50
2022-09-10T21:30:13.383Z,14.40
2022-09-10T21:32:41.903Z,14.30
2022-09-10T21:35:11.170Z,14.30
2022-09-10T21:37:40.349Z,14.30
2022-09-10T21:40:10.528Z,14.50
2022-09-10T21:42:38.966Z,14.70
2022-09-10T21:45:10.675Z,14.80
2022-09-10T21:47:39.356Z,14.80
2022-09-10T21:50:08.806Z,15.00
2022-09-10T21:52:52.402Z,15.10
2022-09-10T21:55:20.982Z,15.10
2022-09-10T21:57:49.615Z,15.10
2022-09-10T22:00:20.208Z,15.10
2022-09-10T22:02:49.564Z,15.30
2022-09-10T22:05:18.606Z,15.50
2022-09-10T22:07:47.435Z,15.50
2022-09-10T22:10:17.187Z,15.40
2022-09-10T22:12:46.373Z,15.40
2022-09-10T22:15:14.980Z,15.20
2022-09-10T22:17:44.942Z,15.30
2022-09-10T22:20:13.462Z,15.10
2022-09-10T22:22:41.965Z,14.90
2022-09-10T22:25:11.035Z,14.80
2022-09-10T22:27:40.060Z,14.80
2022-09-10T22:30:10.154Z,14.80
2022-09-10T22:32:39.671Z,14.80
2022-09-10T22:35:10.360Z,14.90
2022-09-10T22:37:38.900Z,14.90
2022-09-10T22:40:08.322Z,15.00
2022-09-10T22:42:36.858Z,15.00
2022-09-10T22:45:06.233Z,14.90
2022-09-10T22:47:34.803Z,14.90
2022-09-10T22:50:03.223Z,14.70
2022-09-10T22:52:34.221Z,14.60
2022-09-10T22:55:03.198Z,14.60
2022-09-10T22:57:31.711Z,14.50
2022-09-10T23:00:00.217Z,14.50
2022-09-10T23:02:28.884Z,14.40
2022-09-10T23:04:57.370Z,14.20
2022-09-10T23:07:25.878Z,14.30
2022-09-10T23:09:56.239Z,14.40
2022-09-10T23:12:25.531Z,14.40
2022-09-10T23:14:54.007Z,14.50
2022-09-10T23:17:22.797Z,14.50
2022-09-10T23:19:51.312Z,14.60
2022-09-10T23:22:19.776Z,14.60
2022-09-10T23:24:48.175Z,14.60
2022-09-10T23:27:18.303Z,14.70
2022-09-10T23:29:46.766Z,14.60
2022-09-10T23:32:15.279Z,14.70
2022-09-10T23:34:43.707Z,14.60
2022-09-10T23:37:12.136Z,14.50
2022-09-10T23:39:40.693Z,14.40
2022-09-10T23:42:09.485Z,14.40
2022-09-10T23:44:39.426Z,14.40
2022-09-10T23:47:07.935Z,14.40
2022-09-10T23:49:36.437Z,14.40
2022-09-10T23:52:04.918Z,14.40
2022-09-10T23:54:34.027Z,14.00
2022-09-10T23:57:03.266Z,14.00
2022-09-10T23:59:31.760Z,14.00
